sensor_id;sensor_type;location;lat;lon;timestamp;temperature;humidity
66096;SHT31;53861;53.422;14.530;2023-05-10T00:00:52;12.55;55.91
66096;SHT31;53861;53.422;14.530;2023-05-10T00:03:19;12.41;56.60
66096;SHT31;53861;53.422;14.530;2023-05-10T00:05:50;12.39;56.38
66096;SHT31;53861;53.422;14.530;2023-05-10T00:08:17;12.29;56.88
66096;SHT31;53861;53.422;14.530;2023-05-10T00:10:45;12.29;56.93
66096;SHT31;53861;53.422;14.530;2023-05-10T00:13:15;12.26;56.79
66096;SHT31;53861;53.422;14.530;2023-05-10T00:15:47;12.20;57.68
66096;SHT31;53861;53.422;14.530;2023-05-10T00:18:14;12.14;57.51
66096;SHT31;53861;53.422;14.530;2023-05-10T00:20:41;12.12;57.54
66096;SHT31;53861;53.422;14.530;2023-05-10T00:23:09;12.10;57.56
66096;SHT31;53861;53.422;14.530;2023-05-10T00:25:36;12.10;57.44
66096;SHT31;53861;53.422;14.530;2023-05-10T00:28:04;12.08;57.67
66096;SHT31;53861;53.422;14.530;2023-05-10T00:30:34;12.11;57.42
66096;SHT31;53861;53.422;14.530;2023-05-10T00:33:03;11.99;58.09
66096;SHT31;53861;53.422;14.530;2023-05-10T00:35:30;11.94;58.37
66096;SHT31;53861;53.422;14.530;2023-05-10T00:37:58;11.95;58.31
66096;SHT31;53861;53.422;14.530;2023-05-10T00:40:25;11.97;58.17
66096;SHT31;53861;53.422;14.530;2023-05-10T00:42:54;11.95;58.17
66096;SHT31;53861;53.422;14.530;2023-05-10T00:45:22;11.92;58.27
66096;SHT31;53861;53.422;14.530;2023-05-10T00:47:51;11.88;58.53
66096;SHT31;53861;53.422;14.530;2023-05-10T00:50:23;11.84;58.79
66096;SHT31;53861;53.422;14.530;2023-05-10T00:52:50;11.78;58.97
66096;SHT31;53861;53.422;14.530;2023-05-10T00:55:20;11.64;59.84
66096;SHT31;53861;53.422;14.530;2023-05-10T00:57:50;11.53;60.12
66096;SHT31;53861;53.422;14.530;2023-05-10T01:00:18;11.59;59.35
66096;SHT31;53861;53.422;14.530;2023-05-10T01:02:46;11.57;59.71
66096;SHT31;53861;53.422;14.530;2023-05-10T01:05:16;11.54;59.77
66096;SHT31;53861;53.422;14.530;2023-05-10T01:07:45;11.49;60.07
66096;SHT31;53861;53.422;14.530;2023-05-10T01:10:15;11.53;59.79
66096;SHT31;53861;53.422;14.530;2023-05-10T01:12:45;11.46;60.07
66096;SHT31;53861;53.422;14.530;2023-05-10T01:15:14;11.44;60.24
66096;SHT31;53861;53.422;14.530;2023-05-10T01:17:46;11.40;60.17
66096;SHT31;53861;53.422;14.530;2023-05-10T01:20:16;11.33;60.56
66096;SHT31;53861;53.422;14.530;2023-05-10T01:23:11;11.30;60.46
66096;SHT31;53861;53.422;14.530;2023-05-10T01:29:13;11.15;61.12
66096;SHT31;53861;53.422;14.530;2023-05-10T01:32:17;11.00;61.67
66096;SHT31;53861;53.422;14.530;2023-05-10T01:35:00;10.93;62.28
66096;SHT31;53861;53.422;14.530;2023-05-10T01:37:37;10.95;61.76
66096;SHT31;53861;53.422;14.530;2023-05-10T01:40:17;10.89;62.01
66096;SHT31;53861;53.422;14.530;2023-05-10T01:42:53;10.78;62.62
66096;SHT31;53861;53.422;14.530;2023-05-10T01:45:26;10.71;63.59
66096;SHT31;53861;53.422;14.530;2023-05-10T01:48:04;10.67;62.57
66096;SHT31;53861;53.422;14.530;2023-05-10T01:50:34;10.72;62.54
66096;SHT31;53861;53.422;14.530;2023-05-10T01:53:04;10.69;62.52
66096;SHT31;53861;53.422;14.530;2023-05-10T01:55:35;10.69;62.54
66096;SHT31;53861;53.422;14.530;2023-05-10T01:58:11;10.68;62.78
66096;SHT31;53861;53.422;14.530;2023-05-10T02:00:43;10.62;63.73
66096;SHT31;53861;53.422;14.530;2023-05-10T02:03:13;10.58;62.86
66096;SHT31;53861;53.422;14.530;2023-05-10T02:05:43;10.55;62.83
66096;SHT31;53861;53.422;14.530;2023-05-10T02:08:15;10.49;63.57
66096;SHT31;53861;53.422;14.530;2023-05-10T02:10:45;10.44;63.77
66096;SHT31;53861;53.422;14.530;2023-05-10T02:13:19;10.42;63.27
66096;SHT31;53861;53.422;14.530;2023-05-10T02:15:50;10.42;63.52
66096;SHT31;53861;53.422;14.530;2023-05-10T02:18:20;10.41;63.43
66096;SHT31;53861;53.422;14.530;2023-05-10T02:20:50;10.42;63.49
66096;SHT31;53861;53.422;14.530;2023-05-10T02:23:23;10.27;63.96
66096;SHT31;53861;53.422;14.530;2023-05-10T02:25:52;10.31;63.81
66096;SHT31;53861;53.422;14.530;2023-05-10T02:28:24;10.35;63.89
66096;SHT31;53861;53.422;14.530;2023-05-10T02:30:58;10.30;64.12
66096;SHT31;53861;53.422;14.530;2023-05-10T02:33:28;10.22;64.37
66096;SHT31;53861;53.422;14.530;2023-05-10T02:35:59;10.18;64.40
66096;SHT31;53861;53.422;14.530;2023-05-10T02:38:28;10.20;64.22
66096;SHT31;53861;53.422;14.530;2023-05-10T02:40:57;10.20;64.28
66096;SHT31;53861;53.422;14.530;2023-05-10T02:43:28;10.21;64.12
66096;SHT31;53861;53.422;14.530;2023-05-10T02:45:58;10.17;64.18
66096;SHT31;53861;53.422;14.530;2023-05-10T02:48:28;10.14;64.30
66096;SHT31;53861;53.422;14.530;2023-05-10T02:51:00;10.07;64.99
66096;SHT31;53861;53.422;14.530;2023-05-10T02:53:31;10.04;64.86
66096;SHT31;53861;53.422;14.530;2023-05-10T02:56:07;10.04;64.61
66096;SHT31;53861;53.422;14.530;2023-05-10T02:58:39;9.98;65.18
66096;SHT31;53861;53.422;14.530;2023-05-10T03:01:07;9.93;65.11
66096;SHT31;53861;53.422;14.530;2023-05-10T03:03:38;9.87;65.57
66096;SHT31;53861;53.422;14.530;2023-05-10T03:06:05;9.87;65.23
66096;SHT31;53861;53.422;14.530;2023-05-10T03:08:33;9.82;65.76
66096;SHT31;53861;53.422;14.530;2023-05-10T03:11:16;9.76;66.28
66096;SHT31;53861;53.422;14.530;2023-05-10T03:13:53;9.76;65.90
66096;SHT31;53861;53.422;14.530;2023-05-10T03:16:29;9.76;65.80
66096;SHT31;53861;53.422;14.530;2023-05-10T03:19:10;9.72;65.93
66096;SHT31;53861;53.422;14.530;2023-05-10T03:21:50;9.80;65.28
66096;SHT31;53861;53.422;14.530;2023-05-10T03:24:20;9.76;65.76
66096;SHT31;53861;53.422;14.530;2023-05-10T03:26:49;9.75;65.82
66096;SHT31;53861;53.422;14.530;2023-05-10T03:29:17;9.70;66.42
66096;SHT31;53861;53.422;14.530;2023-05-10T03:31:45;9.63;66.21
66096;SHT31;53861;53.422;14.530;2023-05-10T03:34:14;9.60;66.45
66096;SHT31;53861;53.422;14.530;2023-05-10T03:36:41;9.56;66.31
66096;SHT31;53861;53.422;14.530;2023-05-10T03:39:20;9.56;66.59
66096;SHT31;53861;53.422;14.530;2023-05-10T03:41:48;9.59;66.76
66096;SHT31;53861;53.422;14.530;2023-05-10T03:44:16;9.52;66.42
66096;SHT31;53861;53.422;14.530;2023-05-10T03:46:49;9.47;66.70
66096;SHT31;53861;53.422;14.530;2023-05-10T03:49:18;9.55;66.23
66096;SHT31;53861;53.422;14.530;2023-05-10T03:51:45;9.66;66.64
66096;SHT31;53861;53.422;14.530;2023-05-10T03:54:25;9.52;66.87
66096;SHT31;53861;53.422;14.530;2023-05-10T03:56:52;9.56;66.15
66096;SHT31;53861;53.422;14.530;2023-05-10T03:59:20;9.50;66.59
66096;SHT31;53861;53.422;14.530;2023-05-10T04:01:47;9.45;66.55
66096;SHT31;53861;53.422;14.530;2023-05-10T04:04:34;9.46;67.23
66096;SHT31;53861;53.422;14.530;2023-05-10T04:07:05;9.49;67.37
66096;SHT31;53861;53.422;14.530;2023-05-10T04:09:34;9.56;66.70
66096;SHT31;53861;53.422;14.530;2023-05-10T04:12:02;9.65;66.71
66096;SHT31;53861;53.422;14.530;2023-05-10T04:14:29;9.69;66.02
66096;SHT31;53861;53.422;14.530;2023-05-10T04:16:57;9.72;66.25
66096;SHT31;53861;53.422;14.530;2023-05-10T04:19:28;9.73;66.21
66096;SHT31;53861;53.422;14.530;2023-05-10T04:21:57;9.75;66.14
66096;SHT31;53861;53.422;14.530;2023-05-10T04:24:25;9.72;66.27
66096;SHT31;53861;53.422;14.530;2023-05-10T04:26:55;9.76;66.14
66096;SHT31;53861;53.422;14.530;2023-05-10T04:29:25;9.83;65.74
66096;SHT31;53861;53.422;14.530;2023-05-10T04:31:52;9.77;65.99
66096;SHT31;53861;53.422;14.530;2023-05-10T04:34:20;9.79;65.88
66096;SHT31;53861;53.422;14.530;2023-05-10T04:36:50;9.80;66.42
66096;SHT31;53861;53.422;14.530;2023-05-10T04:39:18;9.84;66.15
66096;SHT31;53861;53.422;14.530;2023-05-10T04:41:46;9.83;66.23
66096;SHT31;53861;53.422;14.530;2023-05-10T04:44:13;9.86;65.60
66096;SHT31;53861;53.422;14.530;2023-05-10T04:46:40;9.90;66.04
66096;SHT31;53861;53.422;14.530;2023-05-10T04:49:09;9.91;65.90
66096;SHT31;53861;53.422;14.530;2023-05-10T04:51:37;10.04;65.72
66096;SHT31;53861;53.422;14.530;2023-05-10T04:54:04;9.97;65.50
66096;SHT31;53861;53.422;14.530;2023-05-10T04:56:33;10.13;65.18
66096;SHT31;53861;53.422;14.530;2023-05-10T04:59:02;10.10;65.45
66096;SHT31;53861;53.422;14.530;2023-05-10T05:01:30;10.17;65.63
66096;SHT31;53861;53.422;14.530;2023-05-10T05:04:00;10.17;65.34
66096;SHT31;53861;53.422;14.530;2023-05-10T05:06:30;10.28;64.53
66096;SHT31;53861;53.422;14.530;2023-05-10T05:08:57;10.31;65.18
66096;SHT31;53861;53.422;14.530;2023-05-10T05:11:24;10.35;64.61
66096;SHT31;53861;53.422;14.530;2023-05-10T05:13:54;10.49;64.39
66096;SHT31;53861;53.422;14.530;2023-05-10T05:16:21;10.64;63.74
66096;SHT31;53861;53.422;14.530;2023-05-10T05:18:51;10.62;64.10
66096;SHT31;53861;53.422;14.530;2023-05-10T05:21:19;10.71;63.83
66096;SHT31;53861;53.422;14.530;2023-05-10T05:23:50;10.86;63.62
66096;SHT31;53861;53.422;14.530;2023-05-10T05:26:17;10.85;63.20
66096;SHT31;53861;53.422;14.530;2023-05-10T05:28:44;10.99;63.06
66096;SHT31;53861;53.422;14.530;2023-05-10T05:31:15;11.22;63.66
66096;SHT31;53861;53.422;14.530;2023-05-10T05:33:45;11.41;61.92
66096;SHT31;53861;53.422;14.530;2023-05-10T05:36:13;11.51;61.55
66096;SHT31;53861;53.422;14.530;2023-05-10T05:38:40;11.60;62.00
66096;SHT31;53861;53.422;14.530;2023-05-10T05:41:09;11.66;61.77
66096;SHT31;53861;53.422;14.530;2023-05-10T05:43:38;11.74;61.73
66096;SHT31;53861;53.422;14.530;2023-05-10T05:46:06;11.81;61.07
66096;SHT31;53861;53.422;14.530;2023-05-10T05:48:37;11.92;61.19
66096;SHT31;53861;53.422;14.530;2023-05-10T05:51:04;11.90;61.22
66096;SHT31;53861;53.422;14.530;2023-05-10T05:53:33;12.06;60.84
66096;SHT31;53861;53.422;14.530;2023-05-10T05:56:04;12.22;61.75
66096;SHT31;53861;53.422;14.530;2023-05-10T05:58:32;12.46;60.98
66096;SHT31;53861;53.422;14.530;2023-05-10T06:01:05;12.67;60.97
66096;SHT31;53861;53.422;14.530;2023-05-10T06:03:32;12.69;59.92
66096;SHT31;53861;53.422;14.530;2023-05-10T06:06:01;12.97;60.35
66096;SHT31;53861;53.422;14.530;2023-05-10T06:08:30;13.02;58.72
66096;SHT31;53861;53.422;14.530;2023-05-10T06:11:01;13.16;59.19
66096;SHT31;53861;53.422;14.530;2023-05-10T06:13:29;13.16;58.62
66096;SHT31;53861;53.422;14.530;2023-05-10T06:15:58;13.48;58.21
66096;SHT31;53861;53.422;14.530;2023-05-10T06:18:25;13.74;58.30
66096;SHT31;53861;53.422;14.530;2023-05-10T06:20:53;13.78;58.62
66096;SHT31;53861;53.422;14.530;2023-05-10T06:23:21;14.02;57.64
66096;SHT31;53861;53.422;14.530;2023-05-10T06:25:49;14.15;56.83
66096;SHT31;53861;53.422;14.530;2023-05-10T06:28:19;14.46;56.80
66096;SHT31;53861;53.422;14.530;2023-05-10T06:30:49;15.31;53.78
66096;SHT31;53861;53.422;14.530;2023-05-10T06:33:17;16.17;52.26
66096;SHT31;53861;53.422;14.530;2023-05-10T06:35:45;17.02;50.26
66096;SHT31;53861;53.422;14.530;2023-05-10T06:38:15;17.02;50.37
66096;SHT31;53861;53.422;14.530;2023-05-10T06:40:44;17.38;48.85
66096;SHT31;53861;53.422;14.530;2023-05-10T06:43:11;17.18;48.87
66096;SHT31;53861;53.422;14.530;2023-05-10T06:45:38;16.44;50.86
66096;SHT31;53861;53.422;14.530;2023-05-10T06:48:06;16.38;52.00
66096;SHT31;53861;53.422;14.530;2023-05-10T06:50:34;16.24;51.03
66096;SHT31;53861;53.422;14.530;2023-05-10T06:53:01;16.64;51.10
66096;SHT31;53861;53.422;14.530;2023-05-10T06:55:30;17.05;51.81
66096;SHT31;53861;53.422;14.530;2023-05-10T06:57:59;17.26;51.33
66096;SHT31;53861;53.422;14.530;2023-05-10T07:00:26;17.25;50.22
66096;SHT31;53861;53.422;14.530;2023-05-10T07:02:53;17.93;48.40
66096;SHT31;53861;53.422;14.530;2023-05-10T07:05:21;18.31;47.90
66096;SHT31;53861;53.422;14.530;2023-05-10T07:07:48;19.20;46.48
66096;SHT31;53861;53.422;14.530;2023-05-10T07:10:15;19.49;46.84
66096;SHT31;53861;53.422;14.530;2023-05-10T07:12:43;20.15;44.13
66096;SHT31;53861;53.422;14.530;2023-05-10T07:15:12;20.17;43.57
66096;SHT31;53861;53.422;14.530;2023-05-10T07:17:39;19.87;44.39
66096;SHT31;53861;53.422;14.530;2023-05-10T07:20:08;19.60;47.02
66096;SHT31;53861;53.422;14.530;2023-05-10T07:22:35;19.82;44.49
66096;SHT31;53861;53.422;14.530;2023-05-10T07:25:03;20.83;43.82
66096;SHT31;53861;53.422;14.530;2023-05-10T07:27:30;21.38;42.92
66096;SHT31;53861;53.422;14.530;2023-05-10T07:29:58;20.62;43.52
66096;SHT31;53861;53.422;14.530;2023-05-10T07:32:27;20.97;43.80
66096;SHT31;53861;53.422;14.530;2023-05-10T07:34:54;21.91;42.02
66096;SHT31;53861;53.422;14.530;2023-05-10T07:37:22;21.51;41.51
66096;SHT31;53861;53.422;14.530;2023-05-10T07:39:49;21.04;41.58
66096;SHT31;53861;53.422;14.530;2023-05-10T07:42:16;22.43;41.59
66096;SHT31;53861;53.422;14.530;2023-05-10T07:44:43;22.60;41.48
66096;SHT31;53861;53.422;14.530;2023-05-10T07:47:11;23.21;38.96
66096;SHT31;53861;53.422;14.530;2023-05-10T07:49:39;22.80;40.76
66096;SHT31;53861;53.422;14.530;2023-05-10T07:52:07;22.71;41.32
66096;SHT31;53861;53.422;14.530;2023-05-10T07:54:34;23.18;40.03
66096;SHT31;53861;53.422;14.530;2023-05-10T07:57:01;23.34;39.23
66096;SHT31;53861;53.422;14.530;2023-05-10T07:59:29;23.66;39.91
66096;SHT31;53861;53.422;14.530;2023-05-10T08:01:56;24.37;37.87
66096;SHT31;53861;53.422;14.530;2023-05-10T08:04:23;23.18;39.04
66096;SHT31;53861;53.422;14.530;2023-05-10T08:06:52;22.61;40.10
66096;SHT31;53861;53.422;14.530;2023-05-10T08:09:19;23.31;38.53
66096;SHT31;53861;53.422;14.530;2023-05-10T08:11:49;22.74;40.50
66096;SHT31;53861;53.422;14.530;2023-05-10T08:14:16;23.62;39.38
66096;SHT31;53861;53.422;14.530;2023-05-10T08:16:44;23.55;40.10
66096;SHT31;53861;53.422;14.530;2023-05-10T08:19:11;23.96;38.26
66096;SHT31;53861;53.422;14.530;2023-05-10T08:21:38;24.57;38.57
66096;SHT31;53861;53.422;14.530;2023-05-10T08:24:07;24.56;39.86
66096;SHT31;53861;53.422;14.530;2023-05-10T08:26:35;24.78;36.87
66096;SHT31;53861;53.422;14.530;2023-05-10T08:29:02;23.24;39.43
66096;SHT31;53861;53.422;14.530;2023-05-10T08:31:29;21.78;43.32
66096;SHT31;53861;53.422;14.530;2023-05-10T08:33:57;22.98;42.07
66096;SHT31;53861;53.422;14.530;2023-05-10T08:36:24;23.73;40.51
66096;SHT31;53861;53.422;14.530;2023-05-10T08:38:52;24.77;38.64
66096;SHT31;53861;53.422;14.530;2023-05-10T08:41:22;24.14;37.70
66096;SHT31;53861;53.422;14.530;2023-05-10T08:43:51;23.44;40.65
66096;SHT31;53861;53.422;14.530;2023-05-10T08:46:19;24.30;39.12
66096;SHT31;53861;53.422;14.530;2023-05-10T08:48:48;24.85;40.19
66096;SHT31;53861;53.422;14.530;2023-05-10T08:51:17;25.04;39.22
66096;SHT31;53861;53.422;14.530;2023-05-10T08:53:45;25.04;38.02
66096;SHT31;53861;53.422;14.530;2023-05-10T08:56:13;25.52;40.32
66096;SHT31;53861;53.422;14.530;2023-05-10T08:58:43;25.70;38.02
66096;SHT31;53861;53.422;14.530;2023-05-10T09:01:11;25.46;39.02
66096;SHT31;53861;53.422;14.530;2023-05-10T09:03:40;25.11;38.52
66096;SHT31;53861;53.422;14.530;2023-05-10T09:06:07;24.43;39.74
66096;SHT31;53861;53.422;14.530;2023-05-10T09:08:36;23.92;38.51
66096;SHT31;53861;53.422;14.530;2023-05-10T09:11:05;24.63;37.99
66096;SHT31;53861;53.422;14.530;2023-05-10T09:13:32;24.72;39.15
66096;SHT31;53861;53.422;14.530;2023-05-10T09:16:02;25.62;38.49
66096;SHT31;53861;53.422;14.530;2023-05-10T09:18:30;25.11;40.00
66096;SHT31;53861;53.422;14.530;2023-05-10T09:20:57;25.18;38.67
66096;SHT31;53861;53.422;14.530;2023-05-10T09:23:25;25.82;37.61
66096;SHT31;53861;53.422;14.530;2023-05-10T09:26:04;25.65;37.22
66096;SHT31;53861;53.422;14.530;2023-05-10T09:28:32;26.08;38.75
66096;SHT31;53861;53.422;14.530;2023-05-10T09:30:59;25.94;38.86
66096;SHT31;53861;53.422;14.530;2023-05-10T09:33:28;26.78;36.70
66096;SHT31;53861;53.422;14.530;2023-05-10T09:36:06;26.33;37.30
66096;SHT31;53861;53.422;14.530;2023-05-10T09:38:45;25.93;37.26
66096;SHT31;53861;53.422;14.530;2023-05-10T09:41:18;27.83;37.59
66096;SHT31;53861;53.422;14.530;2023-05-10T09:43:46;27.66;35.90
66096;SHT31;53861;53.422;14.530;2023-05-10T09:46:13;26.96;36.11
66096;SHT31;53861;53.422;14.530;2023-05-10T09:48:44;27.88;35.34
66096;SHT31;53861;53.422;14.530;2023-05-10T09:51:18;26.65;36.08
66096;SHT31;53861;53.422;14.530;2023-05-10T09:53:47;27.71;36.16
66096;SHT31;53861;53.422;14.530;2023-05-10T09:56:34;26.38;36.47
66096;SHT31;53861;53.422;14.530;2023-05-10T09:59:05;28.20;35.98
66096;SHT31;53861;53.422;14.530;2023-05-10T10:01:33;28.47;34.34
66096;SHT31;53861;53.422;14.530;2023-05-10T10:04:04;25.80;36.81
66096;SHT31;53861;53.422;14.530;2023-05-10T10:06:35;26.86;36.83
66096;SHT31;53861;53.422;14.530;2023-05-10T10:09:04;27.71;36.00
66096;SHT31;53861;53.422;14.530;2023-05-10T10:11:34;28.83;33.82
66096;SHT31;53861;53.422;14.530;2023-05-10T10:14:02;28.31;34.69
66096;SHT31;53861;53.422;14.530;2023-05-10T10:16:31;27.83;34.09
66096;SHT31;53861;53.422;14.530;2023-05-10T10:18:58;28.71;35.17
66096;SHT31;53861;53.422;14.530;2023-05-10T10:21:27;29.00;33.16
66096;SHT31;53861;53.422;14.530;2023-05-10T10:23:55;27.71;33.55
66096;SHT31;53861;53.422;14.530;2023-05-10T10:26:22;29.06;32.02
66096;SHT31;53861;53.422;14.530;2023-05-10T10:28:59;29.10;31.72
66096;SHT31;53861;53.422;14.530;2023-05-10T10:31:34;28.55;33.79
66096;SHT31;53861;53.422;14.530;2023-05-10T10:34:06;28.80;33.12
66096;SHT31;53861;53.422;14.530;2023-05-10T10:36:42;27.71;31.81
66096;SHT31;53861;53.422;14.530;2023-05-10T10:39:11;28.68;32.90
66096;SHT31;53861;53.422;14.530;2023-05-10T10:41:40;30.24;30.79
66096;SHT31;53861;53.422;14.530;2023-05-10T10:44:27;29.30;31.60
66096;SHT31;53861;53.422;14.530;2023-05-10T10:47:02;29.95;29.68
66096;SHT31;53861;53.422;14.530;2023-05-10T10:49:32;29.44;30.93
66096;SHT31;53861;53.422;14.530;2023-05-10T10:52:24;28.66;31.02
66096;SHT31;53861;53.422;14.530;2023-05-10T10:54:59;28.90;31.34
66096;SHT31;53861;53.422;14.530;2023-05-10T10:57:26;28.04;33.85
66096;SHT31;53861;53.422;14.530;2023-05-10T11:00:18;28.48;32.60
66096;SHT31;53861;53.422;14.530;2023-05-10T11:02:46;28.00;32.84
66096;SHT31;53861;53.422;14.530;2023-05-10T11:05:42;27.70;33.88
66096;SHT31;53861;53.422;14.530;2023-05-10T11:08:16;28.27;33.07
66096;SHT31;53861;53.422;14.530;2023-05-10T11:11:08;29.10;32.18
66096;SHT31;53861;53.422;14.530;2023-05-10T11:13:39;29.46;32.95
66096;SHT31;53861;53.422;14.530;2023-05-10T11:16:14;30.45;30.46
66096;SHT31;53861;53.422;14.530;2023-05-10T11:18:57;30.26;31.71
66096;SHT31;53861;53.422;14.530;2023-05-10T11:21:24;29.68;32.19
66096;SHT31;53861;53.422;14.530;2023-05-10T11:23:55;28.82;31.46
66096;SHT31;53861;53.422;14.530;2023-05-10T11:26:23;28.22;34.81
66096;SHT31;53861;53.422;14.530;2023-05-10T11:28:53;29.77;34.02
66096;SHT31;53861;53.422;14.530;2023-05-10T11:31:23;28.84;32.03
66096;SHT31;53861;53.422;14.530;2023-05-10T11:33:53;29.16;31.23
66096;SHT31;53861;53.422;14.530;2023-05-10T11:36:23;29.34;32.52
66096;SHT31;53861;53.422;14.530;2023-05-10T11:38:53;27.80;33.60
66096;SHT31;53861;53.422;14.530;2023-05-10T11:41:21;29.13;32.35
66096;SHT31;53861;53.422;14.530;2023-05-10T11:43:50;29.84;32.31
66096;SHT31;53861;53.422;14.530;2023-05-10T11:46:19;30.26;29.96
66096;SHT31;53861;53.422;14.530;2023-05-10T11:48:49;29.29;32.40
66096;SHT31;53861;53.422;14.530;2023-05-10T11:51:20;28.59;30.95
66096;SHT31;53861;53.422;14.530;2023-05-10T11:53:49;27.97;31.06
66096;SHT31;53861;53.422;14.530;2023-05-10T11:56:18;26.99;34.07
66096;SHT31;53861;53.422;14.530;2023-05-10T11:58:52;26.91;33.99
66096;SHT31;53861;53.422;14.530;2023-05-10T12:01:21;26.95;32.99
66096;SHT31;53861;53.422;14.530;2023-05-10T12:03:49;28.00;32.59
66096;SHT31;53861;53.422;14.530;2023-05-10T12:06:17;27.42;32.42
66096;SHT31;53861;53.422;14.530;2023-05-10T12:08:45;26.44;34.09
66096;SHT31;53861;53.422;14.530;2023-05-10T12:11:13;25.59;33.70
66096;SHT31;53861;53.422;14.530;2023-05-10T12:13:44;26.21;34.10
66096;SHT31;53861;53.422;14.530;2023-05-10T12:16:13;26.20;33.49
66096;SHT31;53861;53.422;14.530;2023-05-10T12:18:41;26.08;34.33
66096;SHT31;53861;53.422;14.530;2023-05-10T12:21:09;26.82;33.14
66096;SHT31;53861;53.422;14.530;2023-05-10T12:23:37;27.39;34.46
66096;SHT31;53861;53.422;14.530;2023-05-10T12:26:05;27.46;33.37
66096;SHT31;53861;53.422;14.530;2023-05-10T12:28:33;27.74;34.88
66096;SHT31;53861;53.422;14.530;2023-05-10T12:31:02;27.29;31.82
66096;SHT31;53861;53.422;14.530;2023-05-10T12:33:35;27.27;32.77
66096;SHT31;53861;53.422;14.530;2023-05-10T12:36:04;26.17;33.99
66096;SHT31;53861;53.422;14.530;2023-05-10T12:38:35;26.74;33.76
66096;SHT31;53861;53.422;14.530;2023-05-10T12:41:06;25.58;33.65
66096;SHT31;53861;53.422;14.530;2023-05-10T12:43:34;26.21;34.31
66096;SHT31;53861;53.422;14.530;2023-05-10T12:46:07;25.62;33.96
66096;SHT31;53861;53.422;14.530;2023-05-10T12:48:36;25.59;34.61
66096;SHT31;53861;53.422;14.530;2023-05-10T12:51:04;25.79;33.21
66096;SHT31;53861;53.422;14.530;2023-05-10T12:53:35;25.72;34.35
66096;SHT31;53861;53.422;14.530;2023-05-10T12:56:03;26.45;33.47
66096;SHT31;53861;53.422;14.530;2023-05-10T12:58:30;27.17;33.64
66096;SHT31;53861;53.422;14.530;2023-05-10T13:00:57;26.37;34.32
66096;SHT31;53861;53.422;14.530;2023-05-10T13:03:26;27.22;35.66
66096;SHT31;53861;53.422;14.530;2023-05-10T13:05:54;27.51;32.96
66096;SHT31;53861;53.422;14.530;2023-05-10T13:08:21;26.14;35.02
66096;SHT31;53861;53.422;14.530;2023-05-10T13:10:48;26.34;34.88
66096;SHT31;53861;53.422;14.530;2023-05-10T13:13:16;25.53;35.14
66096;SHT31;53861;53.422;14.530;2023-05-10T13:15:44;25.43;35.99
66096;SHT31;53861;53.422;14.530;2023-05-10T13:18:11;26.67;35.01
66096;SHT31;53861;53.422;14.530;2023-05-10T13:20:40;26.86;34.63
66096;SHT31;53861;53.422;14.530;2023-05-10T13:23:10;26.40;34.48
66096;SHT31;53861;53.422;14.530;2023-05-10T13:25:37;26.43;34.26
66096;SHT31;53861;53.422;14.530;2023-05-10T13:28:05;26.21;34.94
66096;SHT31;53861;53.422;14.530;2023-05-10T13:30:32;25.63;34.93
66096;SHT31;53861;53.422;14.530;2023-05-10T13:32:59;25.74;36.22
66096;SHT31;53861;53.422;14.530;2023-05-10T13:35:27;25.83;35.44
66096;SHT31;53861;53.422;14.530;2023-05-10T13:37:56;26.00;36.19
66096;SHT31;53861;53.422;14.530;2023-05-10T13:40:23;25.86;34.99
66096;SHT31;53861;53.422;14.530;2023-05-10T13:42:50;25.84;35.11
66096;SHT31;53861;53.422;14.530;2023-05-10T13:45:19;26.18;36.66
66096;SHT31;53861;53.422;14.530;2023-05-10T13:47:46;26.43;36.98
66096;SHT31;53861;53.422;14.530;2023-05-10T13:50:14;26.56;34.93
66096;SHT31;53861;53.422;14.530;2023-05-10T13:52:41;26.85;35.25
66096;SHT31;53861;53.422;14.530;2023-05-10T13:55:10;26.62;34.97
66096;SHT31;53861;53.422;14.530;2023-05-10T13:57:38;26.65;34.94
66096;SHT31;53861;53.422;14.530;2023-05-10T14:00:06;25.38;35.76
66096;SHT31;53861;53.422;14.530;2023-05-10T14:02:34;25.61;35.47
66096;SHT31;53861;53.422;14.530;2023-05-10T14:05:01;25.45;35.82
66096;SHT31;53861;53.422;14.530;2023-05-10T14:07:28;25.74;35.48
66096;SHT31;53861;53.422;14.530;2023-05-10T14:09:56;24.88;36.47
66096;SHT31;53861;53.422;14.530;2023-05-10T14:12:25;25.21;36.64
66096;SHT31;53861;53.422;14.530;2023-05-10T14:14:52;24.71;37.65
66096;SHT31;53861;53.422;14.530;2023-05-10T14:17:20;24.54;37.25
66096;SHT31;53861;53.422;14.530;2023-05-10T14:19:47;24.90;38.30
66096;SHT31;53861;53.422;14.530;2023-05-10T14:22:15;24.77;37.42
66096;SHT31;53861;53.422;14.530;2023-05-10T14:24:42;25.28;37.28
66096;SHT31;53861;53.422;14.530;2023-05-10T14:27:12;25.36;37.31
66096;SHT31;53861;53.422;14.530;2023-05-10T14:29:41;25.33;37.37
66096;SHT31;53861;53.422;14.530;2023-05-10T14:32:08;24.87;36.45
66096;SHT31;53861;53.422;14.530;2023-05-10T14:34:36;24.33;37.87
66096;SHT31;53861;53.422;14.530;2023-05-10T14:37:03;24.64;38.47
66096;SHT31;53861;53.422;14.530;2023-05-10T14:39:31;24.54;37.89
66096;SHT31;53861;53.422;14.530;2023-05-10T14:41:59;24.26;37.95
66096;SHT31;53861;53.422;14.530;2023-05-10T14:44:26;23.69;38.63
66096;SHT31;53861;53.422;14.530;2023-05-10T14:46:55;23.49;39.17
66096;SHT31;53861;53.422;14.530;2023-05-10T14:49:22;23.24;39.54
66096;SHT31;53861;53.422;14.530;2023-05-10T14:51:51;23.11;38.76
66096;SHT31;53861;53.422;14.530;2023-05-10T14:54:22;23.31;39.88
66096;SHT31;53861;53.422;14.530;2023-05-10T14:56:50;23.19;39.27
66096;SHT31;53861;53.422;14.530;2023-05-10T14:59:17;23.12;38.83
66096;SHT31;53861;53.422;14.530;2023-05-10T15:01:45;23.11;40.08
66096;SHT31;53861;53.422;14.530;2023-05-10T15:04:16;23.25;39.49
66096;SHT31;53861;53.422;14.530;2023-05-10T15:06:44;23.31;39.53
66096;SHT31;53861;53.422;14.530;2023-05-10T15:09:11;23.12;40.05
66096;SHT31;53861;53.422;14.530;2023-05-10T15:11:39;22.88;40.22
66096;SHT31;53861;53.422;14.530;2023-05-10T15:14:06;22.36;40.32
66096;SHT31;53861;53.422;14.530;2023-05-10T15:16:35;22.44;40.86
66096;SHT31;53861;53.422;14.530;2023-05-10T15:19:03;22.24;41.03
66096;SHT31;53861;53.422;14.530;2023-05-10T15:21:32;22.43;41.09
66096;SHT31;53861;53.422;14.530;2023-05-10T15:24:04;22.44;40.80
66096;SHT31;53861;53.422;14.530;2023-05-10T15:26:32;22.47;41.00
66096;SHT31;53861;53.422;14.530;2023-05-10T15:28:59;22.77;40.62
66096;SHT31;53861;53.422;14.530;2023-05-10T15:31:26;23.08;39.99
66096;SHT31;53861;53.422;14.530;2023-05-10T15:33:56;22.93;40.17
66096;SHT31;53861;53.422;14.530;2023-05-10T15:36:25;22.95;40.83